Time;durP1;ratioP1;P1;durP2;ratioP2;P2;SDS_P1;SDS_P2;PMS_P1;PMS_P2;Temp;Humidity;BMP_temperature;BMP_pressure;BME280_temperature;BME280_humidity;BME280_pressure;Samples;Min_cycle;Max_cycle;Signal;HPM_P1;HPM_P2
2022/05/27 00:01:11;;;;;;;1.38;0.60;;;;;;;22.58;45.96;100312.66;5054981;28;20045;-82
2022/05/27 00:03:37;;;;;;;1.13;0.85;;;;;;;22.57;46.15;100312.72;5038581;28;20101;-83
2022/05/27 00:06:03;;;;;;;1.35;0.75;;;;;;;22.57;45.94;100307.41;5038792;28;20357;-84
2022/05/27 00:08:29;;;;;;;1.73;0.95;;;;;;;22.56;46.10;100308.34;5039072;28;20363;-83
2022/05/27 00:10:56;;;;;;;1.65;0.75;;;;;;;22.56;46.16;100308.34;5059221;28;20063;-83
2022/05/27 00:13:22;;;;;;;1.98;1.00;;;;;;;22.56;45.89;100308.34;5040565;28;20036;-85
2022/05/27 00:15:48;;;;;;;1.40;0.80;;;;;;;22.55;46.22;100304.81;5039622;28;20029;-84
2022/05/27 00:18:13;;;;;;;2.15;1.05;;;;;;;22.53;46.05;100299.56;5039858;28;20158;-84
2022/05/27 00:20:39;;;;;;;2.97;1.00;;;;;;;22.52;46.09;100297.03;5039924;28;20025;-83
2022/05/27 00:23:05;;;;;;;2.70;1.17;;;;;;;22.52;46.16;100292.56;5039916;28;20021;-84
2022/05/27 00:25:31;;;;;;;1.90;0.80;;;;;;;22.52;46.06;100292.56;5040417;28;20465;-84
2022/05/27 00:27:57;;;;;;;2.58;0.90;;;;;;;22.49;46.04;100290.03;5058286;28;20033;-84
2022/05/27 00:30:24;;;;;;;1.95;0.80;;;;;;;22.48;46.13;100290.97;5040404;28;20105;-83
2022/05/27 00:32:50;;;;;;;1.40;0.80;;;;;;;22.48;46.11;100292.78;5040557;28;20074;-84
2022/05/27 00:35:16;;;;;;;1.83;0.70;;;;;;;22.48;46.21;100287.47;5039774;28;20025;-85
2022/05/27 00:37:41;;;;;;;1.73;0.75;;;;;;;22.47;46.27;100288.41;5040180;28;20029;-84
2022/05/27 00:40:09;;;;;;;2.30;0.90;;;;;;;22.46;46.42;100286.69;5040198;28;20504;-83
2022/05/27 00:42:42;;;;;;;1.63;0.90;;;;;;;22.45;46.10;100285.81;5039445;28;20033;-84
2022/05/27 00:45:20;;;;;;;1.33;0.88;;;;;;;22.45;46.08;100284.94;5039858;28;20378;-84
2022/05/27 00:47:48;;;;;;;1.65;0.90;;;;;;;22.44;45.95;100283.25;5042618;28;20029;-84
2022/05/27 00:50:16;;;;;;;1.73;0.88;;;;;;;22.44;46.08;100294.75;5042054;28;20458;-84
2022/05/27 00:52:43;;;;;;;1.50;0.82;;;;;;;22.44;46.26;100285.91;5040671;28;20039;-84
2022/05/27 00:55:15;;;;;;;1.50;0.80;;;;;;;22.43;46.10;100290.38;5039077;28;20024;-84
2022/05/27 00:57:46;;;;;;;2.78;0.98;;;;;;;22.42;46.17;100278.00;5040253;28;20029;-86
2022/05/27 01:00:16;;;;;;;2.28;0.77;;;;;;;22.43;46.31;100278.88;5036863;28;20033;-84
2022/05/27 01:02:43;;;;;;;1.70;0.88;;;;;;;22.43;45.98;100278.88;5052465;28;20045;-85
2022/05/27 01:05:12;;;;;;;1.95;0.82;;;;;;;22.40;46.11;100277.22;5057304;28;20058;-84
2022/05/27 01:07:38;;;;;;;1.23;0.80;;;;;;;22.39;46.19;100276.38;5061363;28;20481;-84
2022/05/27 01:10:07;;;;;;;2.10;0.82;;;;;;;22.38;46.18;100274.66;5079184;28;20024;-83
2022/05/27 01:13:09;;;;;;;1.98;0.80;;;;;;;22.39;46.25;100276.38;5061834;28;20032;-85
2022/05/27 01:15:44;;;;;;;1.20;0.80;;;;;;;22.38;46.33;100273.81;5061950;28;20131;-84
2022/05/27 01:18:15;;;;;;;1.58;0.90;;;;;;;22.37;46.26;100272.09;5062484;28;20067;-83
2022/05/27 01:21:05;;;;;;;2.53;0.90;;;;;;;22.36;46.30;100273.88;5062473;28;20032;-83
2022/05/27 01:23:52;;;;;;;1.27;0.80;;;;;;;22.37;46.39;100277.41;5066854;28;20024;-85
2022/05/27 01:26:46;;;;;;;2.03;0.77;;;;;;;22.35;46.26;100273.97;5066815;28;20060;-84
2022/05/27 01:29:27;;;;;;;1.75;0.70;;;;;;;22.33;46.38;100270.53;5067489;28;20024;-85
2022/05/27 01:32:11;;;;;;;1.95;1.00;;;;;;;22.33;46.08;100267.88;5067487;28;20050;-84
2022/05/27 01:34:58;;;;;;;2.05;0.98;;;;;;;22.32;46.03;100267.00;5083579;28;20036;-85
2022/05/27 01:37:41;;;;;;;2.28;0.98;;;;;;;22.32;46.14;100260.84;5065676;28;20035;-85
2022/05/27 01:40:32;;;;;;;3.00;1.13;;;;;;;22.32;46.26;100259.03;5083984;28;20025;-87
2022/05/27 01:43:11;;;;;;;3.15;1.20;;;;;;;22.31;46.37;100261.75;5056071;28;20074;-86
2022/05/27 01:45:47;;;;;;;2.45;1.30;;;;;;;22.31;46.23;100262.63;5066165;28;20021;-85
2022/05/27 01:48:48;;;;;;;;;;;;;;;22.30;46.27;100265.38;5065838;28;20032;-85
2022/05/27 01:51:24;;;;;;;2.13;0.90;;;;;;;22.29;46.21;100267.19;4964922;28;19910;-84
2022/05/27 01:54:17;;;;;;;1.58;0.90;;;;;;;22.29;46.33;100266.31;5050518;28;20040;-85
2022/05/27 01:56:52;;;;;;;2.05;1.02;;;;;;;22.27;46.29;100261.94;5045140;28;20036;-84
2022/05/27 01:59:25;;;;;;;2.38;1.13;;;;;;;22.26;46.36;100260.22;5081305;28;20104;-85
2022/05/27 02:02:17;;;;;;;2.17;1.00;;;;;;;22.25;46.34;100261.19;5062259;28;20048;-85
2022/05/27 02:04:58;;;;;;;1.73;0.80;;;;;;;22.25;46.46;100258.53;5057145;28;20047;-85
2022/05/27 02:07:48;;;;;;;1.98;0.90;;;;;;;22.24;46.57;100259.44;5064902;28;20028;-86
2022/05/27 02:10:40;;;;;;;2.25;1.00;;;;;;;22.23;46.13;100255.06;5083223;28;20081;-86
2022/05/27 02:13:18;;;;;;;1.75;0.90;;;;;;;22.23;46.28;100260.38;5064462;28;20036;-85
2022/05/27 02:15:47;;;;;;;1.70;0.90;;;;;;;22.22;46.35;100258.66;5065099;28;20039;-85
2022/05/27 02:18:48;;;;;;;2.50;0.80;;;;;;;22.23;46.27;100254.22;5082114;28;20029;-85
2022/05/27 02:21:29;;;;;;;1.90;1.10;;;;;;;22.21;46.56;100246.31;5063062;28;20059;-85
2022/05/27 02:24:01;;;;;;;2.90;0.82;;;;;;;22.21;46.29;100248.13;5080683;28;20024;-84
2022/05/27 02:26:31;;;;;;;1.15;0.80;;;;;;;22.19;46.56;100240.25;5062193;28;20028;-85
2022/05/27 02:29:06;;;;;;;4.68;1.17;;;;;;;22.19;46.33;100242.91;5062917;28;20445;-85
2022/05/27 02:31:36;;;;;;;1.35;0.82;;;;;;;22.19;46.60;100242.03;5059294;28;20039;-84
2022/05/27 02:37:12;;;;;;;1.38;0.90;;;;;;;22.17;46.77;100239.44;5077602;28;20043;-83
2022/05/27 02:39:38;;;;;;;2.13;0.90;;;;;;;22.17;46.67;100236.78;5061759;28;20028;-86
2022/05/27 02:42:12;;;;;;;1.33;0.73;;;;;;;22.17;46.45;100234.13;5061488;28;20020;-85
2022/05/27 02:45:13;;;;;;;2.55;0.88;;;;;;;22.15;46.46;100233.38;5060856;28;20052;-84
2022/05/27 02:48:01;;;;;;;2.22;1.00;;;;;;;22.14;46.45;100231.66;5060538;28;20067;-86
2022/05/27 02:50:47;;;;;;;1.80;0.98;;;;;;;22.12;46.37;100229.06;5059756;28;20038;-83
2022/05/27 02:53:39;;;;;;;1.42;0.80;;;;;;;22.13;46.72;100237.91;5059779;28;20365;-86
2022/05/27 02:56:25;;;;;;;2.80;0.80;;;;;;;22.12;46.75;100230.88;5077421;28;20028;-85
2022/05/27 02:58:52;;;;;;;;;;;;;;;22.13;46.38;100235.25;5059738;28;20028;-84
2022/05/27 03:01:17;;;;;;;3.30;1.10;;;;;;;22.12;46.70;100220.22;5059547;28;19981;-83
2022/05/27 03:03:43;;;;;;;1.58;0.80;;;;;;;22.10;46.68;100217.69;5059648;28;20056;-84
2022/05/27 03:06:39;;;;;;;2.53;1.00;;;;;;;22.10;46.59;100216.81;5059566;28;20374;-86
2022/05/27 03:09:26;;;;;;;1.73;0.98;;;;;;;22.11;46.74;100213.19;5077296;28;20025;-83
2022/05/27 03:12:21;;;;;;;1.02;0.70;;;;;;;22.07;46.70;100206.31;5059916;28;20035;-83
2022/05/27 03:15:13;;;;;;;1.58;0.88;;;;;;;22.06;46.61;100201.97;5077150;28;20457;-84
2022/05/27 03:17:57;;;;;;;1.83;1.00;;;;;;;22.07;46.69;100201.00;5061645;28;20024;-83
2022/05/27 03:20:41;;;;;;;1.90;1.00;;;;;;;22.05;46.78;100193.16;5078722;28;20029;-83
2022/05/27 03:23:38;;;;;;;2.08;1.20;;;;;;;22.03;46.77;100194.16;5061011;28;20051;-84
2022/05/27 03:26:34;;;;;;;2.42;1.00;;;;;;;22.04;46.63;100193.22;5077801;28;20044;-84
2022/05/27 03:29:36;;;;;;;1.10;0.70;;;;;;;22.03;46.70;100194.16;5045997;28;20085;-84
2022/05/27 03:32:10;;;;;;;2.30;1.10;;;;;;;22.04;46.62;100195.88;5060837;28;20339;-84
2022/05/27 03:35:18;;;;;;;2.85;1.20;;;;;;;22.03;46.88;100202.13;5061135;28;20043;-84
2022/05/27 03:37:55;;;;;;;1.40;0.93;;;;;;;22.04;46.60;100198.53;5049751;28;20043;-85
2022/05/27 03:40:27;;;;;;;2.33;1.00;;;;;;;22.02;46.66;100197.78;5078635;28;20036;-85
2022/05/27 03:42:54;;;;;;;2.15;1.10;;;;;;;21.99;46.79;100196.97;5060975;28;20024;-85
2022/05/27 03:45:21;;;;;;;1.63;0.95;;;;;;;21.99;46.83;100191.66;5062586;28;20038;-85
2022/05/27 03:47:48;;;;;;;1.35;0.80;;;;;;;21.99;46.87;100198.78;5062430;28;20032;-85
2022/05/27 03:50:18;;;;;;;1.05;0.70;;;;;;;21.98;46.72;100189.94;5062280;28;20028;-85
2022/05/27 03:52:47;;;;;;;2.22;0.75;;;;;;;21.97;46.73;100201.53;5062894;28;20016;-84
2022/05/27 03:55:16;;;;;;;1.83;0.85;;;;;;;21.97;46.73;100192.69;5065198;28;20032;-85
2022/05/27 03:57:41;;;;;;;3.30;0.85;;;;;;;21.96;46.67;100189.19;5080570;28;20028;-85
2022/05/27 04:00:10;;;;;;;1.48;0.90;;;;;;;21.97;46.81;100185.59;5059662;28;20024;-85
2022/05/27 04:02:36;;;;;;;1.95;0.90;;;;;;;21.97;46.71;100190.91;5062619;28;20156;-84
2022/05/27 04:05:03;;;;;;;1.55;0.80;;;;;;;21.96;46.47;100194.50;5058131;28;20025;-84
2022/05/27 04:07:29;;;;;;;1.85;0.90;;;;;;;21.96;46.80;100191.84;5040813;28;20044;-84
2022/05/27 04:09:54;;;;;;;1.17;0.60;;;;;;;21.95;46.70;100195.44;5058116;28;20029;-85
2022/05/27 04:12:20;;;;;;;1.73;0.73;;;;;;;21.93;46.84;100192.00;5039961;28;20072;-85
2022/05/27 04:14:50;;;;;;;2.08;0.90;;;;;;;21.95;46.77;100194.56;5040936;28;20096;-84
2022/05/27 04:17:27;;;;;;;1.40;0.88;;;;;;;21.93;46.61;100189.34;5041692;28;20043;-85
2022/05/27 04:19:53;;;;;;;1.92;0.90;;;;;;;21.93;46.75;100194.66;5042882;28;20044;-85
2022/05/27 04:22:19;;;;;;;2.15;0.90;;;;;;;21.93;46.69;100197.31;5059263;28;20082;-84
2022/05/27 04:24:45;;;;;;;1.70;0.80;;;;;;;21.93;46.75;100191.16;5040846;28;20036;-84
2022/05/27 04:27:12;;;;;;;3.35;0.80;;;;;;;21.93;46.66;100188.50;5058626;28;20064;-83
2022/05/27 04:29:43;;;;;;;3.03;1.00;;;;;;;21.90;46.76;100186.84;5040824;28;20063;-85
2022/05/27 04:32:09;;;;;;;1.92;0.82;;;;;;;21.91;46.86;100191.22;5061390;28;20017;-85
2022/05/27 04:34:35;;;;;;;2.00;0.80;;;;;;;21.90;46.92;100193.97;5060198;28;20103;-85
2022/05/27 04:37:01;;;;;;;1.15;0.82;;;;;;;21.89;46.77;100187.78;5043017;28;20133;-85
2022/05/27 04:39:27;;;;;;;0.93;0.80;;;;;;;21.89;46.73;100198.41;5042143;28;20528;-86
2022/05/27 04:41:52;;;;;;;2.70;1.10;;;;;;;21.88;46.86;100191.38;5059615;28;20088;-86
2022/05/27 04:44:18;;;;;;;1.35;0.70;;;;;;;21.88;46.84;100186.06;5042354;28;20033;-85
2022/05/27 04:46:45;;;;;;;1.17;0.80;;;;;;;21.86;46.65;100188.81;5039932;28;20075;-85
2022/05/27 04:49:50;;;;;;;1.35;0.80;;;;;;;21.85;46.81;100199.53;5057171;28;20040;-83
2022/05/27 04:51:57;;;;;;;2.78;1.10;;;;;;;21.86;46.99;100193.28;5057205;28;20025;-83
2022/05/27 04:54:23;;;;;;;1.08;0.73;;;;;;;21.86;46.61;100203.91;5040299;28;20033;-83
2022/05/27 04:56:49;;;;;;;2.30;1.05;;;;;;;21.87;46.92;100197.63;5057176;28;20084;-84
2022/05/27 04:59:14;;;;;;;2.13;0.98;;;;;;;21.85;46.81;100192.41;5039388;28;20029;-84
2022/05/27 05:01:40;;;;;;;3.17;1.13;;;;;;;21.85;46.87;100197.72;5063975;28;20063;-83
2022/05/27 05:04:05;;;;;;;2.25;0.90;;;;;;;21.85;46.64;100196.88;5076997;28;20024;-83
2022/05/27 05:06:31;;;;;;;1.55;0.80;;;;;;;21.86;46.81;100198.59;5059006;28;20438;-84
2022/05/27 05:08:57;;;;;;;1.85;0.77;;;;;;;21.85;46.81;100204.84;5060976;28;20028;-85
2022/05/27 05:11:22;;;;;;;1.52;0.77;;;;;;;21.85;46.66;100195.06;5076786;28;20044;-84
2022/05/27 05:13:48;;;;;;;1.20;0.73;;;;;;;21.85;46.68;100199.53;5059486;28;20051;-85
2022/05/27 05:16:13;;;;;;;1.65;0.88;;;;;;;21.85;46.80;100199.53;5059321;28;20409;-85
2022/05/27 05:18:39;;;;;;;1.30;0.85;;;;;;;21.84;46.88;100205.78;5077167;28;20024;-84
2022/05/27 05:21:04;;;;;;;1.75;0.70;;;;;;;21.84;46.74;100208.44;5077387;28;20035;-85
2022/05/27 05:23:30;;;;;;;1.45;0.73;;;;;;;21.85;46.77;100210.16;5059171;28;20032;-85
2022/05/27 05:25:55;;;;;;;2.05;0.90;;;;;;;21.83;46.95;100214.66;5060466;28;20063;-85
2022/05/27 05:28:21;;;;;;;1.85;0.75;;;;;;;21.82;46.67;100211.16;5074284;28;20039;-85
2022/05/27 05:30:47;;;;;;;2.10;1.00;;;;;;;21.82;46.75;100212.97;5056987;28;20339;-85
2022/05/27 05:33:12;;;;;;;2.55;1.13;;;;;;;21.82;46.82;100207.66;5075039;28;20107;-84
2022/05/27 05:35:38;;;;;;;1.90;0.82;;;;;;;21.82;47.02;100207.66;5058245;28;20032;-84
2022/05/27 05:38:04;;;;;;;2.08;0.95;;;;;;;21.81;46.91;100197.97;5058002;28;20059;-84
2022/05/27 05:40:30;;;;;;;1.77;0.77;;;;;;;21.81;46.97;100205.94;5076438;28;20446;-83
2022/05/27 05:42:56;;;;;;;2.28;0.90;;;;;;;21.79;46.72;100205.16;5076051;28;20032;-86
2022/05/27 05:45:21;;;;;;;1.45;0.85;;;;;;;21.78;46.98;100204.28;5059878;28;20032;-84
2022/05/27 05:47:47;;;;;;;2.05;0.90;;;;;;;21.79;46.96;100205.16;5059457;28;20141;-84
2022/05/27 05:50:13;;;;;;;1.63;0.68;;;;;;;21.80;46.80;100204.22;5059298;28;20024;-84
2022/05/27 05:52:39;;;;;;;2.13;0.88;;;;;;;21.79;46.73;100207.81;5060730;28;20113;-85
2022/05/27 05:55:06;;;;;;;2.50;1.08;;;;;;;21.79;47.00;100198.03;5062379;28;20036;-85
2022/05/27 05:57:31;;;;;;;1.55;0.77;;;;;;;21.80;46.84;100201.56;5062861;28;20119;-84
2022/05/27 05:59:59;;;;;;;2.72;1.23;;;;;;;21.81;46.85;100200.63;5063424;28;20052;-83
2022/05/27 06:02:25;;;;;;;1.63;0.90;;;;;;;21.80;47.02;100209.53;5062808;28;20139;-83
2022/05/27 06:04:51;;;;;;;1.80;0.95;;;;;;;21.80;46.95;100206.88;5063200;28;20074;-84
2022/05/27 06:07:16;;;;;;;1.38;0.73;;;;;;;21.83;46.79;100204.91;5063870;28;20028;-85
2022/05/27 06:09:42;;;;;;;2.28;0.90;;;;;;;21.83;46.98;100204.03;5063187;28;20453;-85
2022/05/27 06:12:08;;;;;;;1.48;0.95;;;;;;;21.82;46.82;100191.69;5082093;28;20020;-83
2022/05/27 06:14:36;;;;;;;1.13;0.73;;;;;;;21.81;47.09;100208.59;5064715;28;20059;-84
2022/05/27 06:17:01;;;;;;;1.85;0.80;;;;;;;21.85;46.76;100202.19;5064573;28;20130;-83
2022/05/27 06:19:27;;;;;;;1.83;0.98;;;;;;;21.85;46.85;100213.66;5064307;28;20070;-84
2022/05/27 06:21:53;;;;;;;2.85;0.93;;;;;;;21.85;46.90;100218.13;5064794;28;20043;-84
2022/05/27 06:24:18;;;;;;;2.25;0.98;;;;;;;21.86;46.83;100204.75;5066916;28;20078;-87
2022/05/27 06:26:44;;;;;;;1.40;0.80;;;;;;;21.86;46.74;100209.22;5065035;28;20028;-84
2022/05/27 06:34:38;;;;;;;2.13;0.85;;;;;;;21.93;46.78;100210.59;5082172;28;20503;-84
2022/05/27 06:37:07;;;;;;;1.92;1.00;;;;;;;21.92;46.67;100218.63;5063722;28;20032;-84
2022/05/27 06:39:35;;;;;;;2.60;1.30;;;;;;;21.92;46.84;100230.13;5063466;28;20461;-82
2022/05/27 06:42:03;;;;;;;2.08;1.00;;;;;;;21.91;46.88;100217.78;5062921;28;20032;-84
2022/05/27 06:44:28;;;;;;;1.38;0.80;;;;;;;21.88;46.90;100212.63;5063671;28;20066;-83
2022/05/27 06:46:54;;;;;;;2.20;1.10;;;;;;;21.93;46.82;100205.28;5064082;28;20028;-83
2022/05/27 06:49:20;;;;;;;1.88;0.88;;;;;;;21.96;46.88;100210.44;5064408;28;20029;-83
2022/05/27 06:51:47;;;;;;;1.55;0.93;;;;;;;21.97;46.59;100217.47;5064072;28;20024;-85
2022/05/27 06:54:15;;;;;;;2.35;1.23;;;;;;;21.94;46.51;100216.78;5082285;28;20107;-85
2022/05/27 06:56:42;;;;;;;2.03;1.00;;;;;;;21.93;46.72;100221.22;5059594;28;20047;-84
2022/05/27 06:59:08;;;;;;;2.15;0.90;;;;;;;21.94;46.71;100220.28;5079937;28;20048;-85
2022/05/27 07:01:35;;;;;;;2.10;1.05;;;;;;;21.96;46.81;100223.72;5066679;28;20063;-85
2022/05/27 07:04:00;;;;;;;1.85;0.77;;;;;;;21.98;46.78;100218.31;5066212;28;20114;-86
2022/05/27 07:06:41;;;;;;;1.35;0.88;;;;;;;21.98;46.93;100221.84;5067050;28;20028;-86
2022/05/27 07:09:08;;;;;;;1.40;0.93;;;;;;;21.97;46.76;100220.13;5066639;28;20067;-86
2022/05/27 07:11:35;;;;;;;2.55;1.10;;;;;;;21.93;46.79;100226.53;5065936;28;20055;-84
2022/05/27 07:14:01;;;;;;;2.95;1.05;;;;;;;21.94;46.85;100222.94;5078882;28;20032;-84
2022/05/27 07:16:27;;;;;;;1.10;0.75;;;;;;;21.95;46.92;100215.84;5061633;28;20434;-82
2022/05/27 07:18:54;;;;;;;2.53;1.10;;;;;;;21.93;46.66;100223.88;5061505;28;20035;-84
2022/05/27 07:21:20;;;;;;;2.58;0.93;;;;;;;21.95;46.74;100224.66;5061130;28;20086;-84
2022/05/27 07:23:46;;;;;;;2.40;1.15;;;;;;;21.94;46.77;100222.09;5061247;28;20028;-85
2022/05/27 07:26:12;;;;;;;1.48;0.93;;;;;;;21.94;46.68;100228.25;5061948;28;20035;-84
2022/05/27 07:28:38;;;;;;;1.90;0.80;;;;;;;21.94;46.77;100224.75;5063120;28;20024;-84
2022/05/27 07:31:03;;;;;;;2.45;0.90;;;;;;;21.96;46.66;100222.84;5066161;28;20032;-87
2022/05/27 07:33:29;;;;;;;1.25;0.85;;;;;;;21.97;46.76;100222.78;5066298;28;20097;-82
2022/05/27 07:35:55;;;;;;;2.65;1.00;;;;;;;22.00;46.68;100222.59;5083117;28;20025;-84
2022/05/27 07:38:21;;;;;;;1.10;0.80;;;;;;;22.01;46.60;100218.16;5064766;28;20043;-83
2022/05/27 07:40:47;;;;;;;1.98;1.00;;;;;;;22.04;46.59;100223.31;5065761;28;20039;-85
2022/05/27 07:43:12;;;;;;;1.95;1.05;;;;;;;22.06;46.57;100237.38;5048605;28;20033;-84
2022/05/27 07:45:41;;;;;;;2.08;1.08;;;;;;;22.10;46.67;100232.75;5066377;28;20036;-84
2022/05/27 07:48:08;;;;;;;1.25;0.80;;;;;;;22.12;46.74;100234.38;5063661;28;20368;-84
2022/05/27 07:50:34;;;;;;;1.70;1.00;;;;;;;22.13;46.48;100235.25;5064929;28;20039;-84
2022/05/27 07:53:00;;;;;;;1.63;0.95;;;;;;;22.14;46.37;100234.31;5063144;28;20346;-85
2022/05/27 07:55:26;;;;;;;2.08;1.10;;;;;;;22.15;46.50;100232.50;5065002;28;20024;-85
2022/05/27 07:57:52;;;;;;;2.33;1.10;;;;;;;22.18;46.58;100235.84;5063650;28;20028;-85
2022/05/27 08:00:22;;;;;;;2.05;1.20;;;;;;;22.20;46.55;100233.97;5082125;28;20029;-85
2022/05/27 08:02:47;;;;;;;3.05;1.10;;;;;;;22.22;46.41;100226.78;5064230;28;20040;-83
2022/05/27 08:05:17;;;;;;;1.80;1.08;;;;;;;22.23;46.29;100230.31;5062386;28;20082;-84
2022/05/27 08:07:44;;;;;;;1.98;1.00;;;;;;;22.26;46.34;100230.13;5062193;28;20062;-85
2022/05/27 08:10:11;;;;;;;2.35;1.10;;;;;;;22.27;46.37;100224.72;5049008;28;20032;-84
2022/05/27 08:12:37;;;;;;;2.15;1.00;;;;;;;22.29;46.51;100227.31;5065472;28;20036;-84
2022/05/27 08:15:04;;;;;;;2.72;1.20;;;;;;;22.33;46.38;100222.69;5083273;28;20028;-85
2022/05/27 08:17:29;;;;;;;2.25;1.00;;;;;;;22.34;46.34;100219.06;5084318;28;20060;-85
2022/05/27 08:19:56;;;;;;;2.72;1.38;;;;;;;22.36;46.31;100217.19;5084828;28;20017;-85
2022/05/27 08:22:21;;;;;;;2.10;1.08;;;;;;;22.38;46.58;100216.16;5067369;28;20025;-84
2022/05/27 08:24:47;;;;;;;3.17;1.05;;;;;;;22.40;46.47;100222.25;5063644;28;20032;-85
2022/05/27 08:27:12;;;;;;;1.98;1.00;;;;;;;22.42;46.29;100218.66;5083885;28;20052;-86
2022/05/27 08:29:39;;;;;;;2.67;1.27;;;;;;;22.45;46.28;100222.00;5084341;28;20427;-84
2022/05/27 08:32:06;;;;;;;2.55;1.00;;;;;;;22.46;46.22;100213.06;5082303;28;20055;-84
2022/05/27 08:40:11;;;;;;;1.23;0.83;;;;;;;22.51;45.82;100211.03;5083049;28;20043;-84
2022/05/27 08:43:13;;;;;;;2.95;1.10;;;;;;;22.53;45.92;100201.19;5063470;28;20035;-84
2022/05/27 08:46:15;;;;;;;2.28;1.10;;;;;;;22.55;46.28;100192.28;5064746;28;20028;-84
2022/05/27 08:48:44;;;;;;;2.55;1.10;;;;;;;22.56;46.29;100186.84;5059346;28;20074;-85
2022/05/27 08:51:38;;;;;;;2.80;1.40;;;;;;;22.58;46.09;100197.41;5081983;28;20029;-83
2022/05/27 08:54:11;;;;;;;2.80;1.25;;;;;;;22.59;45.95;100196.47;5058691;28;20512;-84
2022/05/27 08:59:44;;;;;;;2.67;1.20;;;;;;;22.62;46.03;100188.31;5080445;28;20035;-84
2022/05/27 09:02:22;;;;;;;1.92;1.00;;;;;;;22.63;46.15;100192.69;5060986;28;20410;-85
2022/05/27 09:05:14;;;;;;;1.80;1.20;;;;;;;22.65;45.84;100190.78;5060799;28;20124;-84
2022/05/27 09:07:50;;;;;;;1.42;0.90;;;;;;;22.66;45.85;100189.84;5060900;28;20028;-85
2022/05/27 09:10:25;;;;;;;1.95;1.02;;;;;;;22.67;45.95;100178.28;5060336;28;20031;-85
2022/05/27 09:13:03;;;;;;;1.77;1.00;;;;;;;22.70;45.83;100183.41;5060793;28;20115;-84
2022/05/27 09:15:32;;;;;;;2.63;1.10;;;;;;;22.72;45.78;100181.53;5060944;28;20039;-85
2022/05/27 09:18:25;;;;;;;1.67;0.90;;;;;;;22.72;45.49;100178.88;5060572;28;20111;-84
2022/05/27 09:21:03;;;;;;;3.05;1.33;;;;;;;22.75;45.46;100180.47;5061423;28;20028;-85
2022/05/27 09:23:51;;;;;;;2.38;1.08;;;;;;;22.75;45.92;100170.72;5060810;28;20115;-85
2022/05/27 09:26:35;;;;;;;1.73;1.02;;;;;;;22.77;45.63;100179.44;5061169;28;20399;-85
2022/05/27 09:29:19;;;;;;;2.90;1.10;;;;;;;22.80;45.29;100184.59;5065218;28;20056;-84
2022/05/27 09:32:07;;;;;;;1.35;0.82;;;;;;;22.83;45.44;100182.72;5066362;28;20418;-84
2022/05/27 09:34:37;;;;;;;1.25;0.80;;;;;;;22.84;45.53;100189.75;5066514;28;20113;-86
2022/05/27 09:37:06;;;;;;;2.60;1.45;;;;;;;22.84;45.81;100190.59;5084498;28;20028;-85
2022/05/27 09:39:31;;;;;;;3.25;1.20;;;;;;;22.85;45.62;100180.84;5063567;28;20032;-85
2022/05/27 09:42:06;;;;;;;1.95;1.08;;;;;;;22.87;45.46;100184.25;5063171;28;20484;-85
2022/05/27 09:44:41;;;;;;;2.45;1.00;;;;;;;22.87;45.44;100190.44;5063141;28;20039;-85
2022/05/27 09:47:06;;;;;;;3.78;1.45;;;;;;;22.90;45.69;100178.78;5081177;28;20442;-85
2022/05/27 09:49:32;;;;;;;2.38;0.95;;;;;;;22.90;45.72;100174.28;5063926;28;20036;-85
2022/05/27 09:51:59;;;;;;;3.15;1.05;;;;;;;22.93;45.60;100178.56;5065281;28;20454;-85
2022/05/27 09:54:49;;;;;;;1.13;0.82;;;;;;;22.95;45.17;100170.50;5078265;28;20104;-85
2022/05/27 09:57:25;;;;;;;2.38;1.13;;;;;;;22.96;45.57;100165.09;5060630;28;20071;-83
2022/05/27 10:00:03;;;;;;;2.83;1.15;;;;;;;22.97;45.16;100169.47;5063060;28;20028;-86
2022/05/27 10:02:30;;;;;;;2.90;1.20;;;;;;;22.98;45.34;100171.19;5064373;28;20047;-84
2022/05/27 10:05:26;;;;;;;2.85;1.13;;;;;;;23.00;45.33;100163.13;5083738;28;20040;-85
2022/05/27 10:08:00;;;;;;;2.10;1.05;;;;;;;23.01;45.42;100170.16;5062397;28;20041;-84
2022/05/27 10:11:04;;;;;;;2.03;1.05;;;;;;;23.01;45.20;100171.00;5066747;28;20032;-84
2022/05/27 10:13:34;;;;;;;2.00;1.00;;;;;;;23.03;45.22;100178.88;5063045;28;20036;-86
2022/05/27 10:16:14;;;;;;;1.77;1.00;;;;;;;23.06;45.07;100179.56;5065971;28;20096;-87
2022/05/27 10:18:42;;;;;;;2.35;1.20;;;;;;;23.07;45.29;100175.94;5063990;28;20065;-84
2022/05/27 10:21:19;;;;;;;2.47;0.95;;;;;;;23.07;45.20;100170.63;5063431;28;20024;-84
2022/05/27 10:23:54;;;;;;;2.22;1.10;;;;;;;23.10;45.14;100163.44;5081730;28;20021;-84
2022/05/27 10:26:29;;;;;;;2.70;0.88;;;;;;;23.12;45.34;100164.19;5063925;28;20020;-84
2022/05/27 10:29:10;;;;;;;1.30;0.90;;;;;;;23.15;45.22;100161.34;5063417;28;20054;-84
2022/05/27 10:31:36;;;;;;;2.15;1.05;;;;;;;23.14;45.10;100163.16;5061977;28;20480;-85
2022/05/27 10:34:02;;;;;;;1.58;1.00;;;;;;;23.17;45.13;100167.44;5062668;28;20020;-83
2022/05/27 10:36:58;;;;;;;2.08;1.15;;;;;;;23.16;44.86;100163.91;5061822;28;20548;-84
2022/05/27 10:39:28;;;;;;;2.40;0.98;;;;;;;23.19;45.16;100157.53;5061210;28;20021;-84
2022/05/27 10:42:16;;;;;;;1.88;1.10;;;;;;;23.20;45.51;100153.97;5062273;28;20028;-85
2022/05/27 10:45:01;;;;;;;2.28;0.90;;;;;;;23.21;44.83;100155.66;5025396;28;20492;-85
2022/05/27 10:47:57;;;;;;;1.40;0.90;;;;;;;23.23;45.09;100153.75;5061931;28;20424;-85
2022/05/27 10:50:31;;;;;;;2.30;0.80;;;;;;;23.25;44.92;100159.00;5061725;28;20375;-84
2022/05/27 10:53:24;;;;;;;1.90;1.00;;;;;;;23.26;44.84;100153.59;5063639;28;20376;-83
2022/05/27 10:56:02;;;;;;;2.08;0.80;;;;;;;23.27;44.89;100155.31;5062412;28;20028;-83
2022/05/27 11:02:07;;;;;;;1.75;0.90;;;;;;;23.30;44.91;100149.78;5072398;28;20103;-84
2022/05/27 11:05:04;;;;;;;1.70;1.10;;;;;;;23.32;44.68;100144.41;5041378;28;20374;-84
2022/05/27 11:08:07;;;;;;;2.22;0.80;;;;;;;23.35;44.57;100152.22;5041689;28;20025;-83
2022/05/27 11:10:43;;;;;;;1.60;1.00;;;;;;;23.37;44.91;100144.09;5041056;28;20025;-85
2022/05/27 11:17:11;;;;;;;2.13;1.10;;;;;;;23.38;44.83;100133.38;5059587;28;20071;-83
2022/05/27 11:19:58;;;;;;;2.50;1.10;;;;;;;23.40;44.63;100136.81;5058957;28;20104;-84
2022/05/27 11:22:45;;;;;;;1.58;0.80;;;;;;;23.41;44.79;100135.00;5059700;28;20024;-85
2022/05/27 11:25:49;;;;;;;2.10;1.10;;;;;;;23.43;44.65;100138.41;5042557;28;20075;-84
2022/05/27 11:28:18;;;;;;;2.25;1.00;;;;;;;23.45;44.86;100125.88;5044370;28;20032;-84
2022/05/27 11:30:58;;;;;;;2.47;0.98;;;;;;;23.46;44.87;100122.25;5060370;28;20431;-84
2022/05/27 11:33:44;;;;;;;2.08;0.98;;;;;;;23.47;44.73;100113.31;5040671;28;20021;-84
2022/05/27 11:36:17;;;;;;;2.05;0.95;;;;;;;23.49;44.91;100110.56;5041308;28;20028;-85
2022/05/27 11:39:26;;;;;;;2.00;0.88;;;;;;;23.50;44.53;100117.59;5044059;28;20033;-84
2022/05/27 11:42:33;;;;;;;1.48;0.90;;;;;;;23.51;44.81;100117.50;5045081;28;20029;-85
2022/05/27 11:45:08;;;;;;;1.67;1.10;;;;;;;23.54;45.08;100109.31;5046125;28;20039;-85
2022/05/27 11:47:58;;;;;;;1.85;1.00;;;;;;;23.56;44.99;100107.44;5045774;28;20095;-85
2022/05/27 11:50:51;;;;;;;1.85;0.98;;;;;;;23.57;44.85;100109.13;5061042;28;20331;-85
2022/05/27 11:53:48;;;;;;;1.27;0.90;;;;;;;23.59;44.89;100109.06;5047255;28;20017;-85
2022/05/27 11:56:21;;;;;;;2.60;1.10;;;;;;;23.59;44.97;100104.56;5045365;28;20021;-86
2022/05/27 11:59:23;;;;;;;3.22;1.13;;;;;;;23.60;44.62;100103.59;5046059;28;20033;-86
2022/05/27 12:01:57;;;;;;;2.05;1.08;;;;;;;23.60;44.84;100103.59;5053766;28;20043;-86
2022/05/27 12:04:30;;;;;;;1.48;0.80;;;;;;;23.63;44.85;100091.06;5065173;28;20361;-86
2022/05/27 12:07:25;;;;;;;1.30;0.90;;;;;;;23.64;44.88;100085.66;5082204;28;20034;-84
2022/05/27 12:10:15;;;;;;;1.92;1.10;;;;;;;23.66;44.76;100085.53;5063949;28;20039;-85
2022/05/27 12:12:49;;;;;;;2.47;1.00;;;;;;;23.67;45.04;100077.44;5062603;28;20058;-84
2022/05/27 12:15:56;;;;;;;1.90;0.88;;;;;;;23.68;44.61;100079.16;5061972;28;20020;-84
2022/05/27 12:18:27;;;;;;;1.25;0.70;;;;;;;23.71;44.66;100088.75;5051530;28;20033;-84
2022/05/27 12:20:54;;;;;;;2.30;1.23;;;;;;;23.71;44.85;100083.44;5061975;28;20373;-84
2022/05/27 12:23:26;;;;;;;2.15;0.82;;;;;;;23.72;44.85;100077.16;5078865;28;20025;-84